sensor_id;sensor_type;location;lat;lon;timestamp;temperature;humidity
9977;DHT22;5029;47.378;11.776;2022-11-20T00:02:29;2.70;18.80
9977;DHT22;5029;47.378;11.776;2022-11-20T00:07:32;2.80;19.10
9977;DHT22;5029;47.378;11.776;2022-11-20T00:12:36;2.90;8.90
9977;DHT22;5029;47.378;11.776;2022-11-20T00:17:41;2.60;99.90
9977;DHT22;5029;47.378;11.776;2022-11-20T00:22:45;2.50;32.50
9977;DHT22;5029;47.378;11.776;2022-11-20T00:27:48;2.40;38.30
9977;DHT22;5029;47.378;11.776;2022-11-20T00:32:53;2.40;53.40
9977;DHT22;5029;47.378;11.776;2022-11-20T00:37:59;2.60;67.90
9977;DHT22;5029;47.378;11.776;2022-11-20T00:43:03;2.80;55.00
9977;DHT22;5029;47.378;11.776;2022-11-20T00:48:08;2.80;21.70
9977;DHT22;5029;47.378;11.776;2022-11-20T00:53:11;2.80;5.50
9977;DHT22;5029;47.378;11.776;2022-11-20T00:58:15;2.80;1.00
9977;DHT22;5029;47.378;11.776;2022-11-20T01:03:20;2.70;1.00
9977;DHT22;5029;47.378;11.776;2022-11-20T01:08:30;2.60;4.90
9977;DHT22;5029;47.378;11.776;2022-11-20T01:13:35;2.80;21.90
9977;DHT22;5029;47.378;11.776;2022-11-20T01:18:44;2.70;13.10
9977;DHT22;5029;47.378;11.776;2022-11-20T01:23:49;2.60;16.40
9977;DHT22;5029;47.378;11.776;2022-11-20T01:28:53;2.60;24.00
9977;DHT22;5029;47.378;11.776;2022-11-20T01:34:00;2.60;29.30
9977;DHT22;5029;47.378;11.776;2022-11-20T01:39:05;2.70;27.40
9977;DHT22;5029;47.378;11.776;2022-11-20T01:44:11;2.70;15.20
9977;DHT22;5029;47.378;11.776;2022-11-20T01:49:21;2.60;1.00
9977;DHT22;5029;47.378;11.776;2022-11-20T01:54:30;2.60;24.70
9977;DHT22;5029;47.378;11.776;2022-11-20T01:59:38;2.70;21.60
9977;DHT22;5029;47.378;11.776;2022-11-20T02:04:45;2.50;1.00
9977;DHT22;5029;47.378;11.776;2022-11-20T02:09:50;2.30;20.40
9977;DHT22;5029;47.378;11.776;2022-11-20T02:14:59;2.40;46.50
9977;DHT22;5029;47.378;11.776;2022-11-20T02:20:06;2.30;25.30
9977;DHT22;5029;47.378;11.776;2022-11-20T02:25:11;2.40;46.00
9977;DHT22;5029;47.378;11.776;2022-11-20T02:30:15;2.30;29.00
9977;DHT22;5029;47.378;11.776;2022-11-20T02:35:44;2.40;40.80
9977;DHT22;5029;47.378;11.776;2022-11-20T02:40:50;2.30;27.10
9977;DHT22;5029;47.378;11.776;2022-11-20T02:45:56;2.20;48.20
9977;DHT22;5029;47.378;11.776;2022-11-20T02:51:00;2.40;63.10
9977;DHT22;5029;47.378;11.776;2022-11-20T02:56:06;2.40;35.30
9977;DHT22;5029;47.378;11.776;2022-11-20T03:01:10;2.50;42.10
9977;DHT22;5029;47.378;11.776;2022-11-20T03:06:13;2.60;24.40
9977;DHT22;5029;47.378;11.776;2022-11-20T03:11:18;2.30;28.70
9977;DHT22;5029;47.378;11.776;2022-11-20T03:16:23;2.50;52.90
9977;DHT22;5029;47.378;11.776;2022-11-20T03:21:27;2.20;39.30
9977;DHT22;5029;47.378;11.776;2022-11-20T03:26:32;2.30;54.00
9977;DHT22;5029;47.378;11.776;2022-11-20T03:31:37;2.30;79.30
9977;DHT22;5029;47.378;11.776;2022-11-20T03:36:42;2.30;79.90
9977;DHT22;5029;47.378;11.776;2022-11-20T03:41:47;2.20;82.80
9977;DHT22;5029;47.378;11.776;2022-11-20T03:46:51;2.40;91.20
9977;DHT22;5029;47.378;11.776;2022-11-20T03:51:54;2.30;71.40
9977;DHT22;5029;47.378;11.776;2022-11-20T03:56:59;2.30;88.70
9977;DHT22;5029;47.378;11.776;2022-11-20T04:02:03;2.10;97.10
9977;DHT22;5029;47.378;11.776;2022-11-20T04:07:06;2.10;99.90
9977;DHT22;5029;47.378;11.776;2022-11-20T04:12:12;2.20;99.90
9977;DHT22;5029;47.378;11.776;2022-11-20T04:17:15;2.40;99.90
9977;DHT22;5029;47.378;11.776;2022-11-20T04:22:19;2.40;99.90
9977;DHT22;5029;47.378;11.776;2022-11-20T04:27:24;2.40;98.10
9977;DHT22;5029;47.378;11.776;2022-11-20T04:32:27;2.30;99.90
9977;DHT22;5029;47.378;11.776;2022-11-20T04:37:31;2.30;99.90
9977;DHT22;5029;47.378;11.776;2022-11-20T04:42:37;2.30;99.90
9977;DHT22;5029;47.378;11.776;2022-11-20T04:47:40;2.40;99.90
9977;DHT22;5029;47.378;11.776;2022-11-20T04:52:44;2.30;99.80
9977;DHT22;5029;47.378;11.776;2022-11-20T04:57:51;2.20;99.90
9977;DHT22;5029;47.378;11.776;2022-11-20T05:02:54;2.20;99.90
9977;DHT22;5029;47.378;11.776;2022-11-20T05:07:58;2.40;99.90
9977;DHT22;5029;47.378;11.776;2022-11-20T05:13:06;2.50;99.90
9977;DHT22;5029;47.378;11.776;2022-11-20T05:18:09;2.40;99.90
9977;DHT22;5029;47.378;11.776;2022-11-20T05:23:13;2.50;99.90
9977;DHT22;5029;47.378;11.776;2022-11-20T05:28:18;2.50;95.30
9977;DHT22;5029;47.378;11.776;2022-11-20T05:33:21;2.60;97.70
9977;DHT22;5029;47.378;11.776;2022-11-20T05:38:25;2.20;93.90
9977;DHT22;5029;47.378;11.776;2022-11-20T05:43:31;2.30;99.90
9977;DHT22;5029;47.378;11.776;2022-11-20T05:48:36;2.50;99.90
9977;DHT22;5029;47.378;11.776;2022-11-20T05:53:40;2.50;99.90
9977;DHT22;5029;47.378;11.776;2022-11-20T05:58:50;2.50;99.90
9977;DHT22;5029;47.378;11.776;2022-11-20T06:03:54;2.50;98.80
9977;DHT22;5029;47.378;11.776;2022-11-20T06:15:41;2.60;91.80
9977;DHT22;5029;47.378;11.776;2022-11-20T06:21:14;2.60;81.60
9977;DHT22;5029;47.378;11.776;2022-11-20T06:26:35;2.70;77.30
9977;DHT22;5029;47.378;11.776;2022-11-20T06:31:47;2.60;79.10
9977;DHT22;5029;47.378;11.776;2022-11-20T06:37:05;2.70;66.70
9977;DHT22;5029;47.378;11.776;2022-11-20T06:42:39;2.70;59.60
9977;DHT22;5029;47.378;11.776;2022-11-20T06:48:15;2.60;86.50
9977;DHT22;5029;47.378;11.776;2022-11-20T06:53:32;2.50;79.90
9977;DHT22;5029;47.378;11.776;2022-11-20T06:59:16;2.60;99.90
9977;DHT22;5029;47.378;11.776;2022-11-20T07:04:38;2.70;98.20
9977;DHT22;5029;47.378;11.776;2022-11-20T07:09:48;2.80;91.20
9977;DHT22;5029;47.378;11.776;2022-11-20T07:14:53;2.70;66.40
9977;DHT22;5029;47.378;11.776;2022-11-20T07:20:02;2.50;74.00
9977;DHT22;5029;47.378;11.776;2022-11-20T07:25:09;2.50;94.70
9977;DHT22;5029;47.378;11.776;2022-11-20T07:30:16;2.60;99.90
9977;DHT22;5029;47.378;11.776;2022-11-20T07:35:23;2.50;95.60
9977;DHT22;5029;47.378;11.776;2022-11-20T07:40:34;2.70;99.90
9977;DHT22;5029;47.378;11.776;2022-11-20T07:45:43;2.60;99.80
9977;DHT22;5029;47.378;11.776;2022-11-20T07:50:53;2.50;99.90
9977;DHT22;5029;47.378;11.776;2022-11-20T07:56:01;2.60;99.90
9977;DHT22;5029;47.378;11.776;2022-11-20T08:01:14;2.80;99.90
9977;DHT22;5029;47.378;11.776;2022-11-20T08:06:23;2.90;99.90
9977;DHT22;5029;47.378;11.776;2022-11-20T08:11:32;2.90;85.80
9977;DHT22;5029;47.378;11.776;2022-11-20T08:16:55;2.90;81.50
9977;DHT22;5029;47.378;11.776;2022-11-20T08:22:01;3.10;90.60
9977;DHT22;5029;47.378;11.776;2022-11-20T08:27:09;2.90;83.00
9977;DHT22;5029;47.378;11.776;2022-11-20T08:32:21;3.20;96.70
9977;DHT22;5029;47.378;11.776;2022-11-20T08:37:39;3.30;82.80
9977;DHT22;5029;47.378;11.776;2022-11-20T08:43:21;3.30;47.40
9977;DHT22;5029;47.378;11.776;2022-11-20T08:48:31;3.30;23.70
9977;DHT22;5029;47.378;11.776;2022-11-20T08:53:39;3.40;15.80
9977;DHT22;5029;47.378;11.776;2022-11-20T08:58:51;3.20;1.00
9977;DHT22;5029;47.378;11.776;2022-11-20T09:04:26;3.00;3.70
9977;DHT22;5029;47.378;11.776;2022-11-20T09:09:42;3.10;29.30
9977;DHT22;5029;47.378;11.776;2022-11-20T09:15:15;3.30;16.30
9977;DHT22;5029;47.378;11.776;2022-11-20T09:20:41;3.20;1.00
9977;DHT22;5029;47.378;11.776;2022-11-20T09:25:56;3.50;1.00
9977;DHT22;5029;47.378;11.776;2022-11-20T09:31:05;3.60;1.00
9977;DHT22;5029;47.378;11.776;2022-11-20T09:36:09;3.20;1.00
9977;DHT22;5029;47.378;11.776;2022-11-20T09:41:33;3.30;19.70
9977;DHT22;5029;47.378;11.776;2022-11-20T09:46:43;3.40;1.00
9977;DHT22;5029;47.378;11.776;2022-11-20T09:51:55;3.30;1.00
9977;DHT22;5029;47.378;11.776;2022-11-20T09:57:05;3.50;1.00
9977;DHT22;5029;47.378;11.776;2022-11-20T10:02:16;3.60;1.00
9977;DHT22;5029;47.378;11.776;2022-11-20T10:07:30;3.50;1.00
9977;DHT22;5029;47.378;11.776;2022-11-20T10:12:52;3.50;1.00
9977;DHT22;5029;47.378;11.776;2022-11-20T10:18:13;3.80;1.00
9977;DHT22;5029;47.378;11.776;2022-11-20T10:29:14;3.90;1.00
9977;DHT22;5029;47.378;11.776;2022-11-20T10:34:30;4.20;99.90
9977;DHT22;5029;47.378;11.776;2022-11-20T10:39:41;4.50;99.90
9977;DHT22;5029;47.378;11.776;2022-11-20T10:44:58;4.30;99.90
9977;DHT22;5029;47.378;11.776;2022-11-20T10:50:14;4.50;99.90
9977;DHT22;5029;47.378;11.776;2022-11-20T10:55:30;4.60;99.90
9977;DHT22;5029;47.378;11.776;2022-11-20T11:00:36;4.30;99.90
9977;DHT22;5029;47.378;11.776;2022-11-20T11:05:44;4.30;99.90
9977;DHT22;5029;47.378;11.776;2022-11-20T11:11:18;4.30;99.90
9977;DHT22;5029;47.378;11.776;2022-11-20T11:21:54;4.10;99.90
9977;DHT22;5029;47.378;11.776;2022-11-20T11:27:12;4.00;1.00
9977;DHT22;5029;47.378;11.776;2022-11-20T11:32:38;4.00;99.90
9977;DHT22;5029;47.378;11.776;2022-11-20T11:37:42;4.00;99.90
9977;DHT22;5029;47.378;11.776;2022-11-20T11:42:52;3.80;99.90
9977;DHT22;5029;47.378;11.776;2022-11-20T11:48:01;3.60;99.90
9977;DHT22;5029;47.378;11.776;2022-11-20T11:53:13;3.60;99.90
9977;DHT22;5029;47.378;11.776;2022-11-20T11:58:33;3.50;99.90
9977;DHT22;5029;47.378;11.776;2022-11-20T12:09:43;3.50;99.90
9977;DHT22;5029;47.378;11.776;2022-11-20T12:15:06;3.60;99.90
9977;DHT22;5029;47.378;11.776;2022-11-20T12:20:22;3.60;99.90
9977;DHT22;5029;47.378;11.776;2022-11-20T12:25:42;3.90;99.90
9977;DHT22;5029;47.378;11.776;2022-11-20T12:31:23;4.10;99.90
9977;DHT22;5029;47.378;11.776;2022-11-20T12:36:47;4.50;99.90
9977;DHT22;5029;47.378;11.776;2022-11-20T12:42:57;4.70;99.90
9977;DHT22;5029;47.378;11.776;2022-11-20T12:55:16;4.90;99.90
9977;DHT22;5029;47.378;11.776;2022-11-20T13:00:25;4.80;99.90
9977;DHT22;5029;47.378;11.776;2022-11-20T13:05:44;4.80;99.90
9977;DHT22;5029;47.378;11.776;2022-11-20T13:11:01;4.80;99.90
9977;DHT22;5029;47.378;11.776;2022-11-20T13:16:12;4.70;99.90
9977;DHT22;5029;47.378;11.776;2022-11-20T13:21:23;4.60;99.90
9977;DHT22;5029;47.378;11.776;2022-11-20T13:26:58;4.60;99.90
9977;DHT22;5029;47.378;11.776;2022-11-20T13:32:13;4.60;99.90
9977;DHT22;5029;47.378;11.776;2022-11-20T13:37:27;4.50;99.90
9977;DHT22;5029;47.378;11.776;2022-11-20T13:55:30;4.60;99.90
9977;DHT22;5029;47.378;11.776;2022-11-20T14:00:58;4.50;99.90
9977;DHT22;5029;47.378;11.776;2022-11-20T14:06:16;4.30;99.90
9977;DHT22;5029;47.378;11.776;2022-11-20T14:11:34;4.10;99.90
9977;DHT22;5029;47.378;11.776;2022-11-20T14:17:41;3.90;99.90
9977;DHT22;5029;47.378;11.776;2022-11-20T14:22:54;3.80;99.90
9977;DHT22;5029;47.378;11.776;2022-11-20T14:28:24;3.60;99.90
9977;DHT22;5029;47.378;11.776;2022-11-20T14:33:46;3.50;99.90
9977;DHT22;5029;47.378;11.776;2022-11-20T14:39:29;3.40;99.90
9977;DHT22;5029;47.378;11.776;2022-11-20T14:45:53;3.30;99.90
9977;DHT22;5029;47.378;11.776;2022-11-20T14:51:28;3.30;99.90
9977;DHT22;5029;47.378;11.776;2022-11-20T14:56:40;3.10;99.90
9977;DHT22;5029;47.378;11.776;2022-11-20T15:01:58;3.10;99.90
9977;DHT22;5029;47.378;11.776;2022-11-20T15:07:28;3.40;99.90
9977;DHT22;5029;47.378;11.776;2022-11-20T15:12:35;3.40;99.90
9977;DHT22;5029;47.378;11.776;2022-11-20T15:17:48;3.10;99.90
9977;DHT22;5029;47.378;11.776;2022-11-20T15:28:31;3.40;99.90
9977;DHT22;5029;47.378;11.776;2022-11-20T15:33:45;3.10;99.90
9977;DHT22;5029;47.378;11.776;2022-11-20T15:39:00;3.00;99.90
9977;DHT22;5029;47.378;11.776;2022-11-20T15:44:12;3.10;99.90
9977;DHT22;5029;47.378;11.776;2022-11-20T15:49:24;3.20;99.90
9977;DHT22;5029;47.378;11.776;2022-11-20T15:54:31;2.90;99.90
9977;DHT22;5029;47.378;11.776;2022-11-20T15:59:41;2.60;99.90
9977;DHT22;5029;47.378;11.776;2022-11-20T16:16:51;2.50;99.90
9977;DHT22;5029;47.378;11.776;2022-11-20T16:22:33;2.50;99.90
9977;DHT22;5029;47.378;11.776;2022-11-20T16:27:57;2.20;99.90
9977;DHT22;5029;47.378;11.776;2022-11-20T16:33:49;1.90;99.90
9977;DHT22;5029;47.378;11.776;2022-11-20T16:39:17;1.80;99.90
9977;DHT22;5029;47.378;11.776;2022-11-20T16:44:40;1.70;99.90
9977;DHT22;5029;47.378;11.776;2022-11-20T16:50:03;1.70;99.90
9977;DHT22;5029;47.378;11.776;2022-11-20T16:55:31;1.50;99.90
9977;DHT22;5029;47.378;11.776;2022-11-20T17:01:18;1.40;99.90
9977;DHT22;5029;47.378;11.776;2022-11-20T17:06:30;1.50;99.90
9977;DHT22;5029;47.378;11.776;2022-11-20T17:11:36;1.70;99.90
9977;DHT22;5029;47.378;11.776;2022-11-20T17:16:42;1.70;99.90
9977;DHT22;5029;47.378;11.776;2022-11-20T17:21:50;1.60;99.90
9977;DHT22;5029;47.378;11.776;2022-11-20T17:26:57;1.40;99.90
9977;DHT22;5029;47.378;11.776;2022-11-20T17:32:04;1.30;99.90
9977;DHT22;5029;47.378;11.776;2022-11-20T17:37:16;1.30;99.90
9977;DHT22;5029;47.378;11.776;2022-11-20T17:42:21;1.20;99.90
9977;DHT22;5029;47.378;11.776;2022-11-20T17:47:41;1.40;99.90
9977;DHT22;5029;47.378;11.776;2022-11-20T17:52:52;1.70;99.90
9977;DHT22;5029;47.378;11.776;2022-11-20T17:57:57;1.20;99.90
9977;DHT22;5029;47.378;11.776;2022-11-20T18:03:07;1.40;99.90
9977;DHT22;5029;47.378;11.776;2022-11-20T18:08:14;1.10;99.90
9977;DHT22;5029;47.378;11.776;2022-11-20T18:13:19;1.30;99.90
9977;DHT22;5029;47.378;11.776;2022-11-20T18:18:49;1.20;99.90
9977;DHT22;5029;47.378;11.776;2022-11-20T18:23:58;1.00;99.90
9977;DHT22;5029;47.378;11.776;2022-11-20T18:29:03;0.80;99.90
9977;DHT22;5029;47.378;11.776;2022-11-20T18:34:11;1.00;99.90
9977;DHT22;5029;47.378;11.776;2022-11-20T18:39:17;0.60;99.90
9977;DHT22;5029;47.378;11.776;2022-11-20T18:44:25;0.50;99.90
9977;DHT22;5029;47.378;11.776;2022-11-20T18:49:48;0.40;99.90
9977;DHT22;5029;47.378;11.776;2022-11-20T18:54:56;0.90;99.90
9977;DHT22;5029;47.378;11.776;2022-11-20T19:00:02;1.00;99.90
9977;DHT22;5029;47.378;11.776;2022-11-20T19:05:13;0.70;99.90
9977;DHT22;5029;47.378;11.776;2022-11-20T19:10:21;0.60;99.90
9977;DHT22;5029;47.378;11.776;2022-11-20T19:15:26;0.70;99.90
9977;DHT22;5029;47.378;11.776;2022-11-20T19:20:32;0.90;99.90
9977;DHT22;5029;47.378;11.776;2022-11-20T19:25:40;1.00;99.90
9977;DHT22;5029;47.378;11.776;2022-11-20T19:30:45;1.20;99.90
9977;DHT22;5029;47.378;11.776;2022-11-20T19:35:51;1.20;99.90
9977;DHT22;5029;47.378;11.776;2022-11-20T19:40:58;1.20;99.90
9977;DHT22;5029;47.378;11.776;2022-11-20T19:46:03;1.30;99.90
9977;DHT22;5029;47.378;11.776;2022-11-20T19:51:09;0.60;99.90
9977;DHT22;5029;47.378;11.776;2022-11-20T19:56:18;0.90;99.90
9977;DHT22;5029;47.378;11.776;2022-11-20T20:01:26;0.90;99.90
9977;DHT22;5029;47.378;11.776;2022-11-20T20:06:33;0.60;99.90
9977;DHT22;5029;47.378;11.776;2022-11-20T20:11:46;0.80;99.90
9977;DHT22;5029;47.378;11.776;2022-11-20T20:17:00;0.60;99.90
9977;DHT22;5029;47.378;11.776;2022-11-20T20:22:05;0.50;99.90
9977;DHT22;5029;47.378;11.776;2022-11-20T20:27:13;0.50;99.90
9977;DHT22;5029;47.378;11.776;2022-11-20T20:32:19;0.60;99.90
9977;DHT22;5029;47.378;11.776;2022-11-20T20:37:24;0.70;99.90
9977;DHT22;5029;47.378;11.776;2022-11-20T20:42:32;0.70;99.90
9977;DHT22;5029;47.378;11.776;2022-11-20T20:47:40;0.80;99.90
9977;DHT22;5029;47.378;11.776;2022-11-20T20:52:45;0.50;99.90
9977;DHT22;5029;47.378;11.776;2022-11-20T20:57:52;0.70;99.90
9977;DHT22;5029;47.378;11.776;2022-11-20T21:02:58;0.60;99.90
9977;DHT22;5029;47.378;11.776;2022-11-20T21:08:04;0.10;99.90
9977;DHT22;5029;47.378;11.776;2022-11-20T21:13:30;0.40;99.90
9977;DHT22;5029;47.378;11.776;2022-11-20T21:18:34;0.50;99.90
9977;DHT22;5029;47.378;11.776;2022-11-20T21:23:39;0.30;99.90
9977;DHT22;5029;47.378;11.776;2022-11-20T21:28:46;0.10;99.90
9977;DHT22;5029;47.378;11.776;2022-11-20T21:33:52;-0.30;99.90
9977;DHT22;5029;47.378;11.776;2022-11-20T21:38:57;0.00;1.00
9977;DHT22;5029;47.378;11.776;2022-11-20T21:44:04;0.10;99.90
9977;DHT22;5029;47.378;11.776;2022-11-20T21:49:28;0.30;99.90
9977;DHT22;5029;47.378;11.776;2022-11-20T21:54:32;0.40;99.90
9977;DHT22;5029;47.378;11.776;2022-11-20T21:59:38;0.40;99.90
9977;DHT22;5029;47.378;11.776;2022-11-20T22:04:42;-0.30;99.90
9977;DHT22;5029;47.378;11.776;2022-11-20T22:09:46;-0.20;1.00
9977;DHT22;5029;47.378;11.776;2022-11-20T22:14:51;-0.40;1.00
9977;DHT22;5029;47.378;11.776;2022-11-20T22:19:55;-0.30;1.00
9977;DHT22;5029;47.378;11.776;2022-11-20T22:24:58;-0.10;99.90
9977;DHT22;5029;47.378;11.776;2022-11-20T22:30:04;-0.10;99.90
9977;DHT22;5029;47.378;11.776;2022-11-20T22:35:08;0.00;99.90
9977;DHT22;5029;47.378;11.776;2022-11-20T22:40:12;0.20;99.90
9977;DHT22;5029;47.378;11.776;2022-11-20T22:45:17;0.50;99.90
9977;DHT22;5029;47.378;11.776;2022-11-20T22:50:21;0.50;99.90
9977;DHT22;5029;47.378;11.776;2022-11-20T22:55:24;0.20;99.90
9977;DHT22;5029;47.378;11.776;2022-11-20T23:00:29;0.10;99.90
9977;DHT22;5029;47.378;11.776;2022-11-20T23:05:33;-0.20;99.90
9977;DHT22;5029;47.378;11.776;2022-11-20T23:10:36;-0.10;99.90
9977;DHT22;5029;47.378;11.776;2022-11-20T23:15:41;0.10;99.90
9977;DHT22;5029;47.378;11.776;2022-11-20T23:20:45;0.00;99.90
9977;DHT22;5029;47.378;11.776;2022-11-20T23:25:48;-0.10;99.90
9977;DHT22;5029;47.378;11.776;2022-11-20T23:31:08;0.10;99.90
9977;DHT22;5029;47.378;11.776;2022-11-20T23:36:57;0.30;99.90
9977;DHT22;5029;47.378;11.776;2022-11-20T23:42:02;0.40;99.90
9977;DHT22;5029;47.378;11.776;2022-11-20T23:47:07;0.50;99.90
9977;DHT22;5029;47.378;11.776;2022-11-20T23:52:11;0.60;99.90
9977;DHT22;5029;47.378;11.776;2022-11-20T23:57:14;0.40;99.90
